Time;durP1;ratioP1;P1;durP2;ratioP2;P2;SDS_P1;SDS_P2;PMS_P1;PMS_P2;Temp;Humidity;BMP_temperature;BMP_pressure;BME280_temperature;BME280_humidity;BME280_pressure;Samples;Min_cycle;Max_cycle;Signal;HPM_P1;HPM_P2
2021/01/04 00:01:14;;;;;;;;;51.50;45.75;;;;;5.77;72.05;102640.19;4367035;32;12561;-77
2021/01/04 00:04:51;;;;;;;;;50.50;45.50;;;;;5.38;73.25;102631.06;4369092;32;13161;-77
2021/01/04 00:08:01;;;;;;;;;49.75;43.50;;;;;5.64;72.74;102620.47;4321695;32;12481;-77
2021/01/04 00:10:44;;;;;;;;;53.75;44.50;;;;;5.80;72.14;102623.19;4375888;32;12399;-77
2021/01/04 00:13:30;;;;;;;;;51.75;43.50;;;;;5.58;72.74;102616.81;4375436;32;12426;-78
2021/01/04 00:16:03;;;;;;;;;49.75;45.50;;;;;5.71;72.31;102619.22;4372590;32;13110;-77
2021/01/04 00:19:18;;;;;;;;;46.25;43.25;;;;;5.76;72.38;102619.31;4360501;32;12643;-78
2021/01/04 00:22:43;;;;;;;;;46.75;43.25;;;;;5.77;72.52;102617.41;4359843;32;12471;-77
2021/01/04 00:25:26;;;;;;;;;44.00;39.25;;;;;5.64;72.34;102615.00;4349829;32;12395;-77
2021/01/04 00:28:28;;;;;;;;;45.25;42.50;;;;;5.63;72.45;102614.16;4375019;32;12464;-77
2021/01/04 00:31:34;;;;;;;;;51.25;45.00;;;;;5.47;72.82;102615.00;4366164;32;12487;-78
2021/01/04 00:34:25;;;;;;;;;42.25;41.25;;;;;5.67;72.39;102620.78;4360461;33;12417;-77
2021/01/04 00:38:02;;;;;;;;;45.50;42.00;;;;;5.42;72.99;102615.75;4359612;32;12445;-78
2021/01/04 00:41:34;;;;;;;;;33.25;29.25;;;;;5.52;72.64;102610.44;4361048;32;12485;-77
2021/01/04 00:44:06;;;;;;;;;39.50;39.25;;;;;5.37;73.24;102612.94;4360616;32;12463;-78
2021/01/04 00:46:57;;;;;;;;;47.25;41.50;;;;;5.29;73.39;102616.06;4359774;32;12605;-77
2021/01/04 00:50:04;;;;;;;;;41.50;39.25;;;;;5.25;74.04;102612.16;4359583;32;12505;-77
2021/01/04 00:53:07;;;;;;;;;46.75;39.50;;;;;5.42;73.27;102604.75;4359481;32;12438;-77
2021/01/04 00:56:12;;;;;;;;;50.00;45.75;;;;;5.38;73.26;102605.53;4360722;32;12447;-78
2021/01/04 00:59:29;;;;;;;;;45.50;41.25;;;;;5.46;72.73;102602.38;4360166;32;12475;-77
2021/01/04 01:03:03;;;;;;;;;45.50;41.00;;;;;5.43;73.10;102602.84;4365954;32;12450;-78
2021/01/04 01:05:43;;;;;;;;;46.50;44.25;;;;;5.38;73.59;102602.78;4360160;32;13122;-77
2021/01/04 01:08:40;;;;;;;;;49.25;44.50;;;;;5.46;72.80;102605.94;4367095;32;12448;-77
2021/01/04 01:11:30;;;;;;;;;37.75;37.75;;;;;5.39;73.37;102607.19;4374812;32;12424;-77
2021/01/04 01:14:54;;;;;;;;;51.50;42.50;;;;;5.55;73.01;102606.34;4374326;32;12426;-76
2021/01/04 01:17:59;;;;;;;;;52.25;38.50;;;;;5.29;73.48;102614.19;4361054;32;12420;-77
2021/01/04 01:21:07;;;;;;;;;45.00;39.50;;;;;5.22;73.15;102608.03;4359348;32;12435;-77
2021/01/04 01:24:05;;;;;;;;;43.50;42.00;;;;;5.27;72.91;102610.81;4358988;32;12543;-78
2021/01/04 01:26:55;;;;;;;;;50.25;45.00;;;;;5.41;72.25;102616.00;4364837;32;12457;-78
2021/01/04 01:29:51;;;;;;;;;44.25;41.25;;;;;5.38;71.77;102611.84;4362177;32;12393;-77
2021/01/04 01:33:16;;;;;;;;;41.00;39.00;;;;;5.45;71.21;102611.69;4356017;32;12430;-78
2021/01/04 01:36:18;;;;;;;;;48.00;43.75;;;;;5.37;71.69;102604.69;4344647;32;12531;-78
2021/01/04 01:39:28;;;;;;;;;48.25;43.75;;;;;5.36;71.95;102611.25;4358877;33;12477;-78
2021/01/04 01:43:03;;;;;;;;;49.75;42.00;;;;;5.28;72.44;102600.69;4349090;33;13233;-77
2021/01/04 01:46:09;;;;;;;;;56.25;45.75;;;;;5.35;72.07;102597.78;4359145;32;12441;-78
2021/01/04 01:49:29;;;;;;;;;40.25;40.00;;;;;5.35;72.07;102598.59;4358780;32;12449;-77
2021/01/04 01:52:36;;;;;;;;;52.50;47.25;;;;;5.30;72.23;102593.06;4368194;32;12426;-77
2021/01/04 01:55:44;;;;;;;;;51.75;45.25;;;;;5.28;72.14;102598.78;4373170;32;12431;-78
2021/01/04 01:59:21;;;;;;;;;45.50;40.25;;;;;5.44;71.60;102599.84;4371773;32;12430;-77
2021/01/04 02:02:25;;;;;;;;;49.00;43.50;;;;;5.39;71.37;102608.03;4371986;32;12423;-77
2021/01/04 02:05:15;;;;;;;;;43.00;40.75;;;;;5.34;71.53;102599.69;4373970;32;12404;-78
2021/01/04 02:07:56;;;;;;;;;49.75;43.25;;;;;5.43;71.19;102591.88;4373342;32;13190;-78
2021/01/04 02:10:35;;;;;;;;;39.25;37.00;;;;;5.32;71.42;102595.53;4373795;32;12453;-78
2021/01/04 02:14:03;;;;;;;;;45.25;43.50;;;;;5.38;71.03;102595.38;4373162;32;12436;-77
2021/01/04 02:17:09;;;;;;;;;49.75;45.00;;;;;5.35;71.05;102595.03;4358590;32;12419;-77
2021/01/04 02:20:28;;;;;;;;;46.75;43.00;;;;;5.30;71.37;102593.06;4359454;32;12467;-78
2021/01/04 02:23:23;;;;;;;;;53.75;45.75;;;;;5.20;71.73;102590.94;4359318;32;13068;-78
2021/01/04 02:26:23;;;;;;;;;52.50;46.25;;;;;5.12;72.15;102585.87;4372803;32;12449;-78
2021/01/04 02:29:20;;;;;;;;;54.50;47.00;;;;;4.89;72.79;102584.09;4373301;32;12421;-78
2021/01/04 02:32:16;;;;;;;;;44.25;41.75;;;;;5.06;72.17;102583.28;4372892;32;13263;-78
2021/01/04 02:35:12;;;;;;;;;41.50;40.50;;;;;4.94;72.31;102584.19;4373014;32;13360;-78
2021/01/04 02:38:09;;;;;;;;;45.00;40.75;;;;;5.14;71.84;102594.72;4373059;32;12462;-77
2021/01/04 02:41:05;;;;;;;;;47.50;44.50;;;;;5.28;71.54;102578.72;4373514;32;12526;-77
2021/01/04 02:44:01;;;;;;;;;63.67;50.00;;;;;5.18;71.86;102584.06;4372470;32;12514;-78
2021/01/04 02:47:27;;;;;;;;;43.00;40.50;;;;;5.36;71.44;102574.75;4358292;32;12444;-77
2021/01/04 02:50:30;;;;;;;;;64.00;52.67;;;;;5.29;71.56;102577.66;4357485;32;12465;-78
2021/01/04 02:53:35;;;;;;;;;67.67;56.33;;;;;5.15;72.36;102573.59;4372968;32;12402;-77
2021/01/04 02:56:46;;;;;;;;;62.00;52.33;;;;;5.28;72.11;102581.47;4372999;32;9061;-78
2021/01/04 02:59:25;;;;;;;;;50.33;45.33;;;;;5.30;71.99;102582.91;4372761;32;12481;-78
2021/01/04 03:02:34;;;;;;;;;51.50;45.00;;;;;5.20;72.37;102570.91;4372427;32;9001;-78
2021/01/04 03:05:08;;;;;;;;;54.25;44.75;;;;;5.20;72.15;102574.50;4372885;32;12504;-78
2021/01/04 03:08:04;;;;;;;;;51.25;45.00;;;;;5.33;71.78;102576.09;4362582;32;12527;-78
2021/01/04 03:11:00;;;;;;;;;48.50;43.50;;;;;5.30;71.75;102582.91;4358425;32;12446;-78
2021/01/04 03:13:40;;;;;;;;;49.50;44.50;;;;;5.28;71.76;102587.78;4370185;32;12462;-78
2021/01/04 03:16:35;;;;;;;;;59.75;49.00;;;;;5.24;71.71;102588.56;4372254;32;12419;-78
2021/01/04 03:19:37;;;;;;;;;39.50;37.75;;;;;5.29;71.64;102594.09;4362848;32;12451;-77
2021/01/04 03:22:14;;;;;;;;;47.75;44.00;;;;;5.14;71.91;102600.19;4372892;32;12542;-78
2021/01/04 03:25:17;;;;;;;;;42.00;41.50;;;;;5.35;70.94;102604.09;4373883;32;12470;-77
2021/01/04 03:28:30;;;;;;;;;44.50;42.00;;;;;5.36;71.11;102588.47;4372048;32;12468;-80
2021/01/04 03:31:12;;;;;;;;;38.25;30.00;;;;;5.27;70.78;102588.06;4372864;32;12429;-78
2021/01/04 03:33:53;;;;;;;;;41.00;40.00;;;;;5.20;70.78;102593.69;4373196;32;12419;-78
2021/01/04 03:36:21;;;;;;;;;37.25;33.00;;;;;5.29;70.70;102594.97;4374947;32;12424;-78
2021/01/04 03:38:48;;;;;;;;;43.50;40.25;;;;;5.14;71.00;102596.63;4361542;32;12425;-78
2021/01/04 03:41:44;;;;;;;;;46.75;43.50;;;;;5.16;71.20;102589.81;4360253;32;12517;-78
2021/01/04 03:44:10;;;;;;;;;50.25;42.00;;;;;5.11;71.34;102599.84;4362026;32;12437;-78
2021/01/04 03:47:06;;;;;;;;;31.50;31.50;;;;;5.15;71.04;102596.37;4375258;32;12427;-77
2021/01/04 03:49:37;;;;;;;;;26.50;26.50;;;;;5.22;71.12;102605.28;4376119;32;12464;-78
2021/01/04 03:52:05;;;;;;;;;42.50;40.25;;;;;5.27;70.93;102612.75;4375027;32;13075;-78
2021/01/04 03:54:32;;;;;;;;;37.75;36.75;;;;;5.32;70.48;102612.00;4376913;32;13146;-78
2021/01/04 03:57:28;;;;;;;;;37.50;35.00;;;;;5.19;70.43;102611.25;4366389;32;12538;-78
2021/01/04 03:59:55;;;;;;;;;29.50;27.75;;;;;5.31;69.68;102611.19;4376223;32;12408;-78
2021/01/04 04:02:51;;;;;;;;;22.50;22.50;;;;;5.32;69.47;102607.34;4375740;32;12425;-78
2021/01/04 04:05:19;;;;;;;;;33.00;25.50;;;;;5.16;69.84;102613.66;4376240;32;12472;-75
2021/01/04 04:07:51;;;;;;;;;29.00;29.00;;;;;5.03;70.09;102607.41;4375553;32;12413;-78
2021/01/04 04:10:20;;;;;;;;;28.75;27.00;;;;;5.02;70.15;102611.22;4376341;32;12457;-78
2021/01/04 04:13:15;;;;;;;;;38.75;36.75;;;;;4.96;70.39;102622.34;4353589;32;12424;-78
2021/01/04 04:16:13;;;;;;;;;36.75;32.25;;;;;5.05;70.49;102617.28;4374104;32;12423;-77
2021/01/04 04:19:11;;;;;;;;;40.25;40.25;;;;;5.03;70.65;102610.13;4375257;32;12436;-77
2021/01/04 04:21:51;;;;;;;;;39.50;38.00;;;;;5.03;70.19;102614.78;4374989;32;12478;-78
2021/01/04 04:24:20;;;;;;;;;41.25;35.50;;;;;5.09;70.04;102619.31;4375610;32;12475;-77
2021/01/04 04:27:17;;;;;;;;;29.50;29.50;;;;;5.19;69.43;102624.97;4374046;32;12485;-77
2021/01/04 04:30:16;;;;;;;;;46.25;43.50;;;;;5.16;69.74;102619.97;4375165;32;12620;-78
2021/01/04 04:33:12;;;;;;;;;28.00;27.50;;;;;5.09;70.08;102616.56;4374570;32;12414;-77
2021/01/04 04:36:10;;;;;;;;;27.75;27.50;;;;;5.06;70.00;102614.31;4374738;32;13081;-76
2021/01/04 04:38:37;;;;;;;;;46.50;42.25;;;;;5.02;70.12;102611.22;4376323;32;12455;-78
2021/01/04 04:41:45;;;;;;;;;47.67;45.00;;;;;5.14;70.19;102613.91;4360550;32;12466;-78
2021/01/04 04:44:33;;;;;;;;;36.75;36.25;;;;;5.04;69.96;102616.47;4360920;32;13051;-78
2021/01/04 04:47:47;;;;;;;;;29.00;29.00;;;;;5.03;70.04;102625.78;4359432;32;12568;-77
2021/01/04 04:50:53;;;;;;;;;30.25;29.50;;;;;4.89;70.33;102624.41;4362633;32;13173;-77
2021/01/04 04:53:58;;;;;;;;;32.50;30.75;;;;;4.96;70.15;102622.34;4370648;32;12583;-77
2021/01/04 04:56:58;;;;;;;;;38.75;37.25;;;;;4.89;70.21;102625.22;4365158;32;12401;-77
2021/01/04 04:59:57;;;;;;;;;34.00;34.00;;;;;4.94;70.08;102616.28;4374880;32;12608;-78
2021/01/04 05:03:26;;;;;;;;;29.75;29.00;;;;;4.94;70.06;102616.28;4373565;32;12504;-78
2021/01/04 05:06:10;;;;;;;;;34.25;31.50;;;;;4.82;70.36;102607.28;4374043;32;12535;-77
2021/01/04 05:09:11;;;;;;;;;34.25;32.25;;;;;4.79;70.48;102611.34;4374869;32;12401;-77
2021/01/04 05:12:06;;;;;;;;;28.75;28.75;;;;;4.87;69.98;102616.44;4375128;32;12385;-78
2021/01/04 05:14:40;;;;;;;;;31.00;30.25;;;;;4.82;70.21;102610.00;4374548;32;12428;-77
2021/01/04 05:18:14;;;;;;;;;33.50;31.50;;;;;4.80;70.40;102614.91;4373958;32;12490;-78
2021/01/04 05:21:28;;;;;;;;;39.75;36.50;;;;;4.82;70.19;102610.00;4372621;32;12399;-77
2021/01/04 05:24:20;;;;;;;;;31.00;31.00;;;;;4.83;70.20;102614.41;4374739;32;12479;-77
2021/01/04 05:27:41;;;;;;;;;26.25;26.25;;;;;4.87;69.95;102618.34;4364059;32;12412;-74
2021/01/04 05:30:36;;;;;;;;;27.75;27.75;;;;;4.86;69.62;102627.66;4364694;32;12378;-74
2021/01/04 05:33:35;;;;;;;;;26.25;24.75;;;;;4.88;69.81;102633.72;4374487;32;12398;-74
2021/01/04 05:36:29;;;;;;;;;34.25;32.50;;;;;4.79;69.81;102616.81;4362000;32;12457;-74
2021/01/04 05:40:00;;;;;;;;;31.75;30.50;;;;;4.87;69.66;102621.91;4358640;32;13120;-74
2021/01/04 05:43:11;;;;;;;;;40.25;38.75;;;;;4.88;69.82;102620.00;4348515;33;12425;-74
2021/01/04 05:45:40;;;;;;;;;31.75;28.00;;;;;4.83;70.01;102619.91;4347509;33;12487;-74
2021/01/04 05:48:22;;;;;;;;;29.75;29.75;;;;;4.88;69.63;102617.25;4356012;32;12431;-73
2021/01/04 05:51:24;;;;;;;;;25.75;23.50;;;;;4.91;69.20;102619.53;4378653;32;12440;-73
2021/01/04 05:54:36;;;;;;;;;25.25;22.75;;;;;4.92;69.10;102619.28;4364380;32;12516;-73
2021/01/04 05:57:31;;;;;;;;;22.75;22.75;;;;;4.62;69.70;102633.22;4348362;33;12447;-73
2021/01/04 06:00:03;;;;;;;;;32.25;30.50;;;;;4.69;69.94;102624.88;4347484;33;12470;-73
2021/01/04 06:03:21;;;;;;;;;30.25;27.75;;;;;4.81;69.47;102622.06;4363433;32;12385;-73
2021/01/04 06:06:30;;;;;;;;;33.25;32.00;;;;;4.65;69.83;102618.19;4348826;32;12454;-73
2021/01/04 06:09:17;;;;;;;;;43.25;40.75;;;;;4.58;70.31;102620.25;4362319;32;12533;-74
2021/01/04 06:11:51;;;;;;;;;27.00;25.50;;;;;4.74;69.64;102617.53;4360606;32;12405;-73
2021/01/04 06:14:19;;;;;;;;;26.00;23.75;;;;;4.80;69.41;102615.75;4360607;32;12422;-74
2021/01/04 06:17:33;;;;;;;;;30.00;29.25;;;;;4.86;69.26;102609.28;4357320;32;12500;-73
2021/01/04 06:20:31;;;;;;;;;32.25;30.00;;;;;4.88;69.21;102600.81;4372693;32;12402;-74
2021/01/04 06:23:12;;;;;;;;;46.75;43.75;;;;;4.82;69.49;102601.78;4345864;33;13112;-74
2021/01/04 06:26:18;;;;;;;;;54.75;47.50;;;;;4.69;70.08;102609.25;4358989;32;12487;-72
2021/01/04 06:29:02;;;;;;;;;58.00;47.75;;;;;4.97;70.83;102608.38;4359343;32;12467;-73
2021/01/04 06:31:50;;;;;;;;;40.50;40.00;;;;;5.61;78.24;102615.50;4360566;32;12373;-73
2021/01/04 06:34:34;;;;;;;;;42.75;40.25;;;;;5.79;71.03;102607.81;4358609;32;12508;-73
2021/01/04 06:37:32;;;;;;;;;55.75;42.00;;;;;5.78;73.51;102605.31;4358620;32;12418;-73
2021/01/04 06:40:38;;;;;;;;;36.00;35.75;;;;;5.69;72.33;102609.59;4371490;32;12417;-72
2021/01/04 06:43:35;;;;;;;;;41.75;39.25;;;;;5.70;71.33;102614.00;4372804;32;12442;-73
2021/01/04 06:46:41;;;;;;;;;33.50;31.25;;;;;5.71;73.67;102616.47;4374304;32;12428;-73
2021/01/04 06:50:04;;;;;;;;;29.25;29.25;;;;;5.56;69.84;102610.75;4357699;33;12497;-74
2021/01/04 06:53:22;;;;;;;;;25.50;25.50;;;;;5.27;68.59;102610.00;4368024;32;12500;-74
2021/01/04 06:56:25;;;;;;;;;27.00;26.75;;;;;5.12;68.80;102605.06;4376025;32;12398;-74
2021/01/04 06:59:01;;;;;;;;;38.50;37.50;;;;;5.19;68.27;102600.25;4373892;32;12504;-75
2021/01/04 07:02:14;;;;;;;;;40.75;39.25;;;;;4.87;69.78;102594.50;4367352;32;12499;-74
2021/01/04 07:05:25;;;;;;;;;30.75;30.25;;;;;4.95;69.87;102593.25;4359118;32;12596;-74
2021/01/04 07:08:17;;;;;;;;;28.75;28.00;;;;;4.82;70.58;102599.87;4362317;32;12396;-74
2021/01/04 07:11:15;;;;;;;;;43.25;37.75;;;;;4.86;70.68;102594.75;4359081;32;12512;-72
2021/01/04 07:14:16;;;;;;;;;33.25;33.25;;;;;4.94;70.48;102595.16;4357034;33;12481;-71
2021/01/04 07:16:58;;;;;;;;;36.00;35.25;;;;;4.84;70.42;102600.47;4363273;32;12349;-73
2021/01/04 07:19:44;;;;;;;;;32.00;32.00;;;;;4.64;70.57;102595.44;4375420;32;12414;-72
2021/01/04 07:23:15;;;;;;;;;41.00;40.50;;;;;4.77;70.39;102593.47;4362798;32;12577;-72
2021/01/04 07:26:05;;;;;;;;;30.25;27.50;;;;;4.92;70.00;102585.53;4342094;32;12470;-73
2021/01/04 07:29:20;;;;;;;;;29.00;26.75;;;;;4.68;70.72;102582.91;4370723;32;12558;-73
2021/01/04 07:32:30;;;;;;;;;35.25;33.50;;;;;4.90;70.09;102577.53;4373462;32;12437;-72
2021/01/04 07:35:14;;;;;;;;;45.50;42.75;;;;;4.94;69.90;102584.19;4372674;32;12517;-73
2021/01/04 07:38:22;;;;;;;;;32.00;32.00;;;;;4.85;70.26;102585.69;4352107;33;12489;-74
2021/01/04 07:40:59;;;;;;;;;36.75;33.75;;;;;4.87;70.42;102588.19;4366715;33;12424;-73
2021/01/04 07:44:22;;;;;;;;;31.75;31.75;;;;;4.85;70.84;102593.91;4360370;33;12471;-74
2021/01/04 07:47:21;;;;;;;;;36.75;30.00;;;;;4.89;70.75;102595.06;4363325;32;12509;-74
2021/01/04 07:50:10;;;;;;;;;32.25;32.00;;;;;4.84;70.98;102589.50;4360467;32;13061;-73
2021/01/04 07:53:15;;;;;;;;;31.00;31.00;;;;;4.97;70.64;102591.94;4360251;32;12506;-73
2021/01/04 07:56:34;;;;;;;;;33.00;33.00;;;;;4.97;70.21;102589.19;4358515;32;12402;-73
2021/01/04 07:59:58;;;;;;;;;41.00;38.75;;;;;4.92;70.34;102591.03;4368147;32;13070;-73
2021/01/04 08:03:03;;;;;;;;;43.25;41.25;;;;;4.94;70.00;102592.44;4372070;32;12464;-73
2021/01/04 08:06:30;;;;;;;;;48.75;43.75;;;;;4.92;70.07;102585.53;4370511;32;12460;-73
2021/01/04 08:09:43;;;;;;;;;38.00;37.50;;;;;4.98;69.91;102584.53;4373632;32;12458;-73
2021/01/04 08:12:32;;;;;;;;;33.25;33.00;;;;;4.98;69.98;102576.31;4372958;32;13123;-75
2021/01/04 08:15:36;;;;;;;;;37.00;36.25;;;;;4.82;70.14;102574.38;4371571;32;12407;-74
2021/01/04 08:18:09;;;;;;;;;41.50;41.00;;;;;4.78;70.23;102567.72;4370048;32;12512;-74
2021/01/04 08:21:24;;;;;;;;;56.50;48.50;;;;;4.79;70.53;102562.00;4372339;32;12468;-74
2021/01/04 08:24:42;;;;;;;;;40.75;39.00;;;;;4.88;70.60;102556.94;4367679;32;12501;-73
2021/01/04 08:28:04;;;;;;;;;44.50;41.25;;;;;4.72;70.57;102553.91;4375180;32;12478;-73
2021/01/04 08:31:33;;;;;;;;;57.25;48.50;;;;;4.91;70.46;102556.47;4373192;32;12461;-72
2021/01/04 08:34:06;;;;;;;;;50.00;42.00;;;;;4.67;70.54;102547.50;4371138;32;12430;-73
2021/01/04 08:37:02;;;;;;;;;36.50;35.50;;;;;4.72;70.69;102551.19;4375160;32;13199;-73
2021/01/04 08:40:11;;;;;;;;;36.75;36.25;;;;;4.66;70.85;102548.59;4375255;32;12594;-74
2021/01/04 08:43:07;;;;;;;;;40.00;38.75;;;;;4.72;70.57;102548.44;4367302;32;12427;-74
2021/01/04 08:46:33;;;;;;;;;34.75;34.25;;;;;4.71;70.76;102543.22;4359499;32;12808;-74
2021/01/04 08:49:22;;;;;;;;;44.50;43.25;;;;;4.78;70.36;102543.88;4359969;32;12404;-74
2021/01/04 08:51:51;;;;;;;;;37.75;36.25;;;;;4.96;69.79;102543.66;4372852;32;13047;-75
2021/01/04 08:54:17;;;;;;;;;40.50;38.50;;;;;4.89;70.22;102537.50;4358359;32;12361;-75
2021/01/04 08:56:47;;;;;;;;;48.75;41.50;;;;;4.98;69.94;102537.91;4358508;32;13209;-75
2021/01/04 08:59:18;;;;;;;;;28.75;28.75;;;;;4.95;69.87;102543.91;4372055;32;12447;-74
2021/01/04 09:02:13;;;;;;;;;41.75;40.75;;;;;4.92;69.46;102539.75;4370665;32;12503;-74
2021/01/04 09:04:41;;;;;;;;;49.25;42.00;;;;;4.92;69.64;102541.66;4358136;32;12635;-75
2021/01/04 09:07:19;;;;;;;;;49.75;44.75;;;;;4.80;70.31;102535.41;4370304;32;12381;-75
2021/01/04 09:10:20;;;;;;;;;46.50;43.75;;;;;4.88;70.49;102529.53;4369397;32;12446;-75
2021/01/04 09:13:22;;;;;;;;;31.75;31.75;;;;;4.95;70.24;102519.22;4370646;32;12426;-75
2021/01/04 09:16:09;;;;;;;;;38.25;37.75;;;;;4.96;69.92;102509.91;4371927;32;13163;-75
2021/01/04 09:18:49;;;;;;;;;53.75;46.00;;;;;5.03;69.75;102503.19;4368992;32;12453;-74
2021/01/04 09:21:31;;;;;;;;;43.75;42.50;;;;;4.83;70.63;102500.13;4360136;32;12476;-74
2021/01/04 09:24:27;;;;;;;;;32.25;32.00;;;;;4.95;70.68;102491.81;4363848;32;12541;-74
2021/01/04 09:27:32;;;;;;;;;29.00;27.25;;;;;4.95;70.32;102505.50;4365151;32;12454;-74
2021/01/04 09:30:28;;;;;;;;;18.00;16.00;;;;;4.93;70.45;102494.78;4376465;32;12408;-75
2021/01/04 09:33:13;;;;;;;;;25.75;24.50;;;;;5.10;69.76;102496.69;4358839;32;12381;-75
2021/01/04 09:36:09;;;;;;;;;26.25;26.25;;;;;5.07;69.55;102497.22;4369560;32;12382;-75
2021/01/04 09:38:48;;;;;;;;;22.00;22.00;;;;;4.86;70.02;102498.78;4360072;32;12433;-76
2021/01/04 09:41:22;;;;;;;;;25.00;25.00;;;;;4.96;70.05;102497.03;4359217;32;12384;-75
2021/01/04 09:44:22;;;;;;;;;25.75;24.50;;;;;5.05;69.96;102497.44;4371690;32;12447;-75
2021/01/04 09:47:00;;;;;;;;;14.25;14.25;;;;;4.81;70.30;102488.53;4374987;32;12527;-77
2021/01/04 09:50:08;;;;;;;;;30.00;29.75;;;;;4.98;70.63;102499.53;4370158;32;12545;-75
2021/01/04 09:53:32;;;;;;;;;33.25;33.25;;;;;5.11;69.86;102479.16;4370170;32;12430;-77
2021/01/04 09:56:38;;;;;;;;;29.50;29.50;;;;;4.97;69.62;102495.94;4369807;32;12491;-75
2021/01/04 09:59:12;;;;;;;;;29.50;29.50;;;;;5.15;69.45;102496.78;4372894;32;12384;-74
2021/01/04 10:02:19;;;;;;;;;24.50;24.50;;;;;5.10;69.52;102488.47;4378402;32;12753;-75
2021/01/04 10:05:13;;;;;;;;;26.25;26.25;;;;;5.15;69.55;102488.56;4374166;32;12383;-76
2021/01/04 10:08:21;;;;;;;;;32.75;32.75;;;;;5.13;69.48;102483.31;4373432;32;12437;-75
2021/01/04 10:11:01;;;;;;;;;21.25;21.25;;;;;5.14;68.87;102487.72;4355935;32;12391;-74
2021/01/04 10:14:11;;;;;;;;;21.75;21.75;;;;;5.19;69.22;102479.56;4372263;32;12378;-76
2021/01/04 10:17:09;;;;;;;;;20.50;20.50;;;;;5.20;69.01;102474.91;4360489;32;12390;-75
2021/01/04 10:19:51;;;;;;;;;31.50;31.00;;;;;5.12;69.74;102475.34;4371839;32;12426;-75
2021/01/04 10:22:50;;;;;;;;;33.00;32.75;;;;;5.21;69.19;102471.06;4360184;32;12530;-74
2021/01/04 10:25:42;;;;;;;;;31.50;31.00;;;;;5.23;69.49;102471.69;4359249;32;12453;-75
2021/01/04 10:28:13;;;;;;;;;29.00;29.00;;;;;5.36;69.11;102459.50;4357834;32;12416;-74
2021/01/04 10:30:49;;;;;;;;;19.50;19.50;;;;;5.24;69.57;102460.44;4358620;32;12450;-74
2021/01/04 10:33:34;;;;;;;;;27.50;21.00;;;;;5.33;69.19;102460.00;4370820;32;12397;-74
2021/01/04 10:36:16;;;;;;;;;22.50;22.50;;;;;5.34;68.89;102457.00;4370714;32;12453;-74
2021/01/04 10:39:22;;;;;;;;;22.50;21.50;;;;;5.34;68.55;102467.16;4368490;32;12369;-74
2021/01/04 10:42:24;;;;;;;;;19.50;19.00;;;;;5.25;68.63;102464.84;4371045;32;13105;-74
2021/01/04 10:45:34;;;;;;;;;15.75;15.75;;;;;5.36;68.70;102462.25;4368549;32;12483;-74
2021/01/04 10:48:34;;;;;;;;;21.75;21.75;;;;;5.26;68.94;102466.50;4370751;32;12433;-74
2021/01/04 10:51:18;;;;;;;;;35.25;34.50;;;;;5.15;69.66;102463.87;4356895;32;13154;-73
2021/01/04 10:54:18;;;;;;;;;26.50;26.50;;;;;5.25;69.39;102464.03;4360977;32;12429;-75
2021/01/04 10:57:29;;;;;;;;;27.50;26.50;;;;;5.45;69.08;102449.78;4356678;32;12475;-74
2021/01/04 11:00:30;;;;;;;;;19.25;19.00;;;;;5.44;68.85;102445.34;4369565;32;12520;-75
2021/01/04 11:03:26;;;;;;;;;16.00;15.00;;;;;5.40;68.33;102445.03;4359147;32;12505;-74
2021/01/04 11:05:58;;;;;;;;;21.75;21.50;;;;;5.38;68.35;102435.41;4371641;32;12479;-74
2021/01/04 11:08:54;;;;;;;;;15.75;15.75;;;;;5.48;67.87;102427.28;4369902;32;12409;-75
2021/01/04 11:12:02;;;;;;;;;16.00;16.00;;;;;5.41;68.45;102432.12;4370715;32;12433;-77
2021/01/04 11:15:01;;;;;;;;;18.00;18.00;;;;;5.42;68.19;102431.06;4369358;32;12514;-75
2021/01/04 11:18:17;;;;;;;;;22.25;21.25;;;;;5.38;68.97;102424.44;4368769;32;12423;-75
2021/01/04 11:21:13;;;;;;;;;18.50;17.25;;;;;5.41;68.49;102427.47;4358481;32;12384;-74
2021/01/04 11:24:09;;;;;;;;;29.00;29.00;;;;;5.44;68.47;102418.72;4369183;32;12396;-75
2021/01/04 11:27:06;;;;;;;;;31.25;30.25;;;;;5.30;68.65;102417.47;4368538;32;12400;-76
2021/01/04 11:30:03;;;;;;;;;33.25;31.00;;;;;5.42;68.84;102411.84;4349803;32;12528;-77
2021/01/04 11:33:00;;;;;;;;;21.50;21.50;;;;;5.45;69.05;102408.59;4368423;32;12435;-74
2021/01/04 11:35:56;;;;;;;;;15.75;15.75;;;;;5.35;69.20;102409.28;4369156;32;12402;-74
2021/01/04 11:38:51;;;;;;;;;25.25;25.00;;;;;5.48;68.80;102406.16;4360417;32;12393;-75
2021/01/04 11:41:49;;;;;;;;;26.25;26.25;;;;;5.43;69.00;102406.09;4360656;32;12523;-74
2021/01/04 11:44:46;;;;;;;;;30.00;27.50;;;;;5.43;69.25;102400.59;4359775;32;12386;-75
2021/01/04 11:47:18;;;;;;;;;27.50;27.50;;;;;5.45;69.20;102397.62;4358712;32;12403;-74
2021/01/04 11:50:18;;;;;;;;;23.75;23.75;;;;;5.44;69.36;102391.28;4371504;32;13182;-74
2021/01/04 11:53:14;;;;;;;;;24.25;24.25;;;;;5.47;69.33;102389.97;4369145;32;13242;-75
2021/01/04 11:56:09;;;;;;;;;19.75;19.75;;;;;5.40;69.33;102387.41;4365183;32;12456;-75
2021/01/04 11:59:05;;;;;;;;;27.75;27.25;;;;;5.48;69.21;102386.97;4373884;32;12412;-75
2021/01/04 12:01:54;;;;;;;;;27.50;27.50;;;;;5.61;68.78;102396.72;4373456;32;12463;-74
2021/01/04 12:04:22;;;;;;;;;38.50;36.25;;;;;5.44;69.19;102394.03;4371184;32;12480;-75
2021/01/04 12:06:50;;;;;;;;;27.50;27.50;;;;;5.59;69.12;102387.91;4373130;32;12389;-74
2021/01/04 12:09:18;;;;;;;;;22.75;22.25;;;;;5.12;70.07;102393.88;4360564;32;12404;-74
2021/01/04 12:12:14;;;;;;;;;26.25;25.75;;;;;5.32;70.23;102392.50;4373427;32;12449;-75
2021/01/04 12:15:11;;;;;;;;;22.50;21.00;;;;;5.37;69.57;102376.09;4369433;32;12372;-75
2021/01/04 12:18:07;;;;;;;;;24.50;24.25;;;;;5.50;69.25;102379.28;4372256;32;13084;-73
2021/01/04 12:21:03;;;;;;;;;26.50;24.75;;;;;5.46;69.47;102380.06;4372183;32;12590;-74
2021/01/04 12:23:59;;;;;;;;;25.75;25.75;;;;;5.21;70.17;102384.16;4371546;32;12399;-74
2021/01/04 12:26:54;;;;;;;;;33.50;33.00;;;;;5.32;69.99;102370.56;4371490;32;12570;-73
2021/01/04 12:29:21;;;;;;;;;30.50;28.75;;;;;5.45;69.89;102365.53;4373155;32;12510;-73
2021/01/04 12:31:52;;;;;;;;;39.75;39.25;;;;;5.27;70.50;102369.41;4373337;32;12436;-75
2021/01/04 12:34:51;;;;;;;;;31.25;31.00;;;;;5.50;69.94;102367.47;4369478;32;12406;-75
2021/01/04 12:37:47;;;;;;;;;43.00;37.25;;;;;5.30;70.09;102373.56;4368666;32;12571;-74
2021/01/04 12:40:43;;;;;;;;;31.25;29.50;;;;;5.46;69.79;102371.84;4370333;32;12505;-74
2021/01/04 12:43:44;;;;;;;;;32.25;32.25;;;;;5.46;69.79;102372.66;4371214;32;12508;-73
2021/01/04 12:46:49;;;;;;;;;28.75;27.75;;;;;5.58;69.12;102373.34;4370558;32;12489;-74
2021/01/04 12:49:45;;;;;;;;;33.00;31.00;;;;;5.57;69.05;102382.66;4374734;32;12500;-75
2021/01/04 12:52:41;;;;;;;;;34.75;32.75;;;;;5.61;69.18;102380.25;4377365;32;12401;-75
2021/01/04 12:55:24;;;;;;;;;31.75;31.25;;;;;5.64;69.24;102395.38;4378493;32;12591;-75
2021/01/04 12:58:20;;;;;;;;;37.25;36.00;;;;;5.67;69.21;102405.84;4371483;32;12472;-73
2021/01/04 13:01:17;;;;;;;;;54.75;44.00;;;;;5.57;69.49;102398.31;4372905;32;12490;-76
2021/01/04 13:04:12;;;;;;;;;39.50;38.50;;;;;5.63;69.27;102399.22;4359039;32;12475;-74
2021/01/04 13:07:09;;;;;;;;;28.25;28.25;;;;;5.74;68.78;102385.34;4375274;32;13128;-74
2021/01/04 13:09:44;;;;;;;;;32.50;30.50;;;;;5.61;69.26;102385.75;4359098;32;12445;-75
2021/01/04 13:12:25;;;;;;;;;37.00;35.00;;;;;5.76;69.00;102388.69;4370928;32;12430;-73
2021/01/04 13:14:54;;;;;;;;;41.00;38.75;;;;;5.61;69.03;102388.50;4373314;32;12440;-74
2021/01/04 13:17:50;;;;;;;;;31.75;30.75;;;;;5.45;69.63;102382.00;4369446;32;12489;-73
2021/01/04 13:20:17;;;;;;;;;20.75;19.75;;;;;5.37;70.22;102378.84;4371601;32;12475;-73
2021/01/04 13:22:59;;;;;;;;;27.00;27.00;;;;;5.00;71.22;102383.03;4360465;32;12392;-73
2021/01/04 13:25:55;;;;;;;;;59.67;49.33;;;;;5.24;70.72;102383.63;4372473;32;12455;-73
2021/01/04 13:28:51;;;;;;;;;25.50;25.25;;;;;5.36;70.49;102386.25;4359344;32;12443;-73